Friedheim, Missouri
Current Conditions -  °F | °C
As of 5:53 AM on Monday 29 Dec 2014 (Local Time) from KCGI Reporting Station
Overcast Overcast  
Wind Chill: 21°   Ceiling: 1700
Heat Index: 30°   Visibility: 10mi
Dew Point: 24°   Wind: 10mph
Humidity: 79%   Direction: 50°NE
Pressure: 30.25"   Gusts: NA
Location:  37.57°N, 89.82°W
Report Text: KCGI 291153Z AUTO 05009KT 10SM OVC017 M01/M04 A3025 RMK AO2 SLP245 T10111044 10006 21011 53001 TSNO
Loading
Personal Weather Stations






























Interactive Weather Map New forecast layout! Learn more

10-Day Weather Forecast

Advertisements
Track Severe Weather on mobile